Time;durP1;ratioP1;P1;durP2;ratioP2;P2;SDS_P1;SDS_P2;PMS_P1;PMS_P2;Temp;Humidity;BMP_temperature;BMP_pressure;BME280_temperature;BME280_humidity;BME280_pressure;Samples;Min_cycle;Max_cycle;Signal;HPM_P1;HPM_P2
2022/01/29 00:02:10;;;;;;;70.53;33.35;;;;;;;4.81;95.69;102894.88;4771010;30;20046;-76
2022/01/29 00:04:36;;;;;;;71.95;34.25;;;;;;;5.04;95.92;102928.03;4769839;30;20477;-77
2022/01/29 00:07:03;;;;;;;68.45;32.47;;;;;;;5.11;95.82;102927.13;4771173;30;20472;-75
2022/01/29 00:09:28;;;;;;;71.40;33.60;;;;;;;5.04;95.79;102905.00;4770945;30;20028;-76
2022/01/29 00:11:53;;;;;;;71.72;35.28;;;;;;;5.15;95.90;102927.09;4770935;30;20093;-76
2022/01/29 00:14:19;;;;;;;66.68;32.65;;;;;;;5.00;95.63;102906.69;4770930;30;20039;-77
2022/01/29 00:16:44;;;;;;;66.55;32.63;;;;;;;5.15;95.64;102928.81;4770811;30;20036;-77
2022/01/29 00:19:09;;;;;;;68.78;34.42;;;;;;;5.09;95.60;102910.91;4770844;30;20085;-76
2022/01/29 00:21:37;;;;;;;69.40;33.80;;;;;;;5.13;95.56;102912.63;4770945;30;20040;-76
2022/01/29 00:24:03;;;;;;;70.22;34.38;;;;;;;5.17;95.55;102911.72;4770758;30;20096;-78
2022/01/29 00:26:31;;;;;;;70.15;36.35;;;;;;;5.18;95.70;102908.28;4770426;30;20040;-75
2022/01/29 00:28:58;;;;;;;68.28;32.92;;;;;;;5.12;95.59;102890.44;4770405;30;20036;-77
2022/01/29 00:31:24;;;;;;;64.90;34.20;;;;;;;5.05;95.87;102871.69;4754284;30;20081;-76
2022/01/29 00:33:49;;;;;;;67.05;33.55;;;;;;;5.08;95.64;102875.94;4770635;30;20058;-77
2022/01/29 00:36:15;;;;;;;67.38;33.45;;;;;;;5.05;95.87;102866.56;4769980;30;20142;-79
2022/01/29 00:38:40;;;;;;;64.80;35.47;;;;;;;5.14;95.60;102879.31;4754722;30;20063;-76
2022/01/29 00:41:06;;;;;;;67.78;33.30;;;;;;;5.07;95.68;102879.34;4770415;30;20036;-76
2022/01/29 00:43:31;;;;;;;68.80;34.72;;;;;;;5.24;95.60;102909.97;4770402;30;20480;-76
2022/01/29 00:45:56;;;;;;;68.32;35.78;;;;;;;5.14;95.69;102886.16;4770255;30;20039;-76
2022/01/29 00:48:22;;;;;;;69.82;36.28;;;;;;;5.27;95.57;102894.56;4770255;30;20039;-76
2022/01/29 00:50:47;;;;;;;68.30;33.05;;;;;;;5.26;95.46;102891.16;4770508;30;20471;-76
2022/01/29 00:53:13;;;;;;;64.93;33.25;;;;;;;5.25;95.47;102888.63;4770405;30;20054;-76
2022/01/29 00:55:41;;;;;;;64.63;33.65;;;;;;;5.23;95.61;102880.94;4770181;30;20089;-75
2022/01/29 00:58:06;;;;;;;67.32;34.05;;;;;;;5.27;95.89;102877.50;4771629;30;20477;-76
2022/01/29 01:00:31;;;;;;;66.05;34.88;;;;;;;5.24;95.66;102876.69;4754144;30;20055;-76
2022/01/29 01:02:57;;;;;;;70.80;34.20;;;;;;;5.28;95.76;102863.81;4770329;30;20027;-76
2022/01/29 01:05:22;;;;;;;62.60;34.72;;;;;;;5.29;96.12;102856.97;4770303;30;20036;-75
2022/01/29 01:07:47;;;;;;;70.40;35.25;;;;;;;5.26;96.00;102852.75;4770339;30;20028;-79
2022/01/29 01:10:13;;;;;;;64.47;34.17;;;;;;;5.26;96.09;102845.06;4770111;30;20358;-75
2022/01/29 01:12:38;;;;;;;69.82;35.65;;;;;;;5.17;96.13;102828.06;4770039;30;20046;-78
2022/01/29 01:15:05;;;;;;;70.32;34.53;;;;;;;5.20;96.57;102834.84;4770274;30;20051;-76
2022/01/29 01:17:30;;;;;;;65.85;34.28;;;;;;;5.25;96.58;102827.16;4770048;30;20031;-76
2022/01/29 01:19:55;;;;;;;67.70;36.45;;;;;;;5.18;96.82;102823.78;4770054;30;20093;-76
2022/01/29 01:22:21;;;;;;;65.18;34.85;;;;;;;5.24;97.26;102813.50;4770201;30;20068;-75
2022/01/29 01:24:47;;;;;;;66.88;37.42;;;;;;;5.23;97.24;102808.38;4770059;30;20028;-76
2022/01/29 01:27:13;;;;;;;70.35;34.53;;;;;;;5.21;97.64;102805.84;4769826;30;20047;-75
2022/01/29 01:29:38;;;;;;;68.07;34.72;;;;;;;5.17;97.74;102806.72;4770054;30;20455;-76
2022/01/29 01:32:05;;;;;;;64.38;34.10;;;;;;;5.21;98.21;102795.59;4770156;30;20028;-75
2022/01/29 01:34:34;;;;;;;75.82;38.83;;;;;;;5.11;98.27;102779.47;4770035;30;20421;-75
2022/01/29 01:37:06;;;;;;;71.13;36.65;;;;;;;5.09;98.56;102778.59;4770294;30;20039;-75
2022/01/29 01:39:35;;;;;;;79.05;39.40;;;;;;;5.21;98.36;102790.47;4770004;30;20028;-75
2022/01/29 01:42:05;;;;;;;72.60;38.13;;;;;;;5.21;98.26;102795.59;4769738;30;20028;-75
2022/01/29 01:44:40;;;;;;;75.75;36.42;;;;;;;5.19;98.66;102787.06;4770056;30;20116;-75
2022/01/29 01:47:08;;;;;;;74.22;36.70;;;;;;;5.20;98.67;102791.31;4770786;30;20028;-78
2022/01/29 01:49:35;;;;;;;77.18;39.28;;;;;;;4.99;99.19;102747.97;4773528;30;20039;-77
2022/01/29 01:52:00;;;;;;;73.85;37.97;;;;;;;5.18;99.62;102780.25;4773489;30;20031;-78
2022/01/29 01:54:25;;;;;;;74.25;37.72;;;;;;;5.15;99.82;102775.16;4773396;30;20083;-76
2022/01/29 01:56:51;;;;;;;73.45;37.67;;;;;;;5.10;100.00;102774.34;4773303;30;20477;-76
2022/01/29 01:59:16;;;;;;;77.80;37.28;;;;;;;5.05;100.00;102760.75;4775166;30;20087;-78
2022/01/29 02:01:42;;;;;;;72.15;39.92;;;;;;;5.05;100.00;102773.53;4773189;30;20046;-79
2022/01/29 02:04:07;;;;;;;83.25;39.45;;;;;;;5.02;100.00;102769.31;4773430;30;20038;-79
2022/01/29 02:06:33;;;;;;;78.53;37.90;;;;;;;4.87;100.00;102739.53;4773323;30;20075;-79
2022/01/29 02:09:00;;;;;;;74.88;37.60;;;;;;;4.95;100.00;102754.84;4773257;30;20036;-79
2022/01/29 02:11:27;;;;;;;74.57;38.00;;;;;;;4.96;100.00;102750.56;4773185;30;20055;-77
2022/01/29 02:13:55;;;;;;;75.85;38.30;;;;;;;4.95;100.00;102749.72;4772988;30;20079;-79
2022/01/29 02:16:20;;;;;;;74.93;38.03;;;;;;;4.93;100.00;102756.56;4773164;30;20039;-77
2022/01/29 02:18:46;;;;;;;70.68;38.03;;;;;;;4.94;100.00;102749.75;4773006;30;20123;-76
2022/01/29 02:21:11;;;;;;;78.03;38.13;;;;;;;4.77;100.00;102727.69;4773163;30;20031;-78
2022/01/29 02:23:37;;;;;;;74.28;38.63;;;;;;;4.88;100.00;102742.94;4773143;30;20107;-79
2022/01/29 02:26:02;;;;;;;72.93;36.55;;;;;;;4.88;100.00;102745.50;4772884;30;20023;-79
2022/01/29 02:28:28;;;;;;;75.40;38.13;;;;;;;4.86;100.00;102739.56;4772616;30;20107;-76
2022/01/29 02:31:02;;;;;;;77.40;37.22;;;;;;;4.84;100.00;102743.84;4772812;30;20055;-78
2022/01/29 02:33:30;;;;;;;70.57;36.45;;;;;;;4.82;100.00;102738.75;4772797;30;20031;-77
2022/01/29 02:35:55;;;;;;;70.70;36.47;;;;;;;4.81;100.00;102729.34;4772705;30;20047;-78
2022/01/29 02:38:23;;;;;;;72.75;36.15;;;;;;;4.81;100.00;102723.38;4771443;30;20040;-77
2022/01/29 02:40:52;;;;;;;72.15;36.08;;;;;;;4.69;100.00;102698.75;4772744;30;20035;-79
2022/01/29 02:43:19;;;;;;;74.90;36.60;;;;;;;4.81;100.00;102719.09;4772460;30;20028;-76
2022/01/29 02:45:45;;;;;;;70.60;36.13;;;;;;;4.80;100.00;102711.44;4772548;30;20063;-76
2022/01/29 02:48:11;;;;;;;69.43;35.08;;;;;;;4.71;100.00;102694.47;4772281;30;20028;-76
2022/01/29 02:50:38;;;;;;;71.32;36.53;;;;;;;4.81;100.00;102719.09;4772617;30;20032;-78
2022/01/29 02:53:04;;;;;;;70.45;36.67;;;;;;;4.74;100.00;102704.69;4772374;30;20035;-78
2022/01/29 02:55:30;;;;;;;76.85;36.42;;;;;;;4.82;100.00;102715.72;4772357;30;20046;-78
2022/01/29 02:57:56;;;;;;;76.78;37.45;;;;;;;4.68;100.00;102691.09;4772048;30;20408;-76
2022/01/29 03:00:21;;;;;;;71.35;34.78;;;;;;;4.75;100.00;102697.88;4771145;30;20024;-78
2022/01/29 03:11:20;;;;;;;77.88;39.17;;;;;;;4.84;100.00;102703.75;5113713;24;20063;-78
2022/01/29 03:26:41;;;;;;;74.28;34.35;;;;;;;4.66;100.00;102639.09;5246369;24;20417;-73
2022/01/29 03:29:07;;;;;;;78.32;37.85;;;;;;;4.74;100.00;102650.94;4789467;29;20034;-77
2022/01/29 03:31:32;;;;;;;73.80;35.63;;;;;;;4.83;100.00;102667.94;4789321;30;20468;-76
2022/01/29 03:33:57;;;;;;;78.47;38.72;;;;;;;4.83;100.00;102657.69;4789306;30;20033;-78
2022/01/29 03:36:23;;;;;;;80.22;37.63;;;;;;;4.89;100.00;102662.72;4789272;30;20447;-78
2022/01/29 03:38:48;;;;;;;75.45;36.35;;;;;;;4.76;100.00;102653.50;4789426;30;20054;-77
2022/01/29 03:41:14;;;;;;;83.90;39.60;;;;;;;4.86;100.00;102660.22;4789383;30;20159;-76
2022/01/29 03:43:45;;;;;;;76.57;37.17;;;;;;;4.83;100.00;102650.00;4789260;29;20031;-75
2022/01/29 03:46:11;;;;;;;76.90;35.50;;;;;;;4.90;100.00;102657.59;4789100;30;20032;-77
2022/01/29 03:48:36;;;;;;;80.68;38.45;;;;;;;4.64;100.00;102612.66;4789255;30;20514;-76
2022/01/29 03:51:02;;;;;;;84.45;37.72;;;;;;;4.92;100.00;102654.16;4787740;30;20122;-76
2022/01/29 03:53:27;;;;;;;86.45;37.15;;;;;;;4.65;100.00;102615.22;4789220;30;20063;-76
2022/01/29 03:55:55;;;;;;;83.50;38.20;;;;;;;4.98;100.00;102656.69;4788956;30;20031;-78
2022/01/29 03:58:23;;;;;;;81.15;37.30;;;;;;;5.00;100.00;102644.69;4807165;29;20141;-77
2022/01/29 04:00:48;;;;;;;87.13;38.50;;;;;;;5.02;100.00;102653.25;4806963;29;20110;-77
2022/01/29 04:03:14;;;;;;;83.40;38.28;;;;;;;5.01;100.00;102642.13;4807155;29;20045;-76
2022/01/29 04:05:39;;;;;;;81.50;37.53;;;;;;;4.95;100.00;102629.41;4806972;29;20035;-76
2022/01/29 04:08:12;;;;;;;79.93;36.53;;;;;;;5.09;100.00;102647.16;4807103;29;20160;-76
2022/01/29 04:10:38;;;;;;;79.32;36.15;;;;;;;5.14;100.00;102651.38;4806226;29;20373;-76
2022/01/29 04:13:03;;;;;;;78.90;37.75;;;;;;;5.03;100.00;102626.75;4806778;29;20037;-76
2022/01/29 04:15:32;;;;;;;75.80;36.40;;;;;;;5.17;100.00;102640.25;4790368;29;20049;-76
2022/01/29 04:17:57;;;;;;;75.70;35.83;;;;;;;5.19;100.00;102639.34;4806691;29;20031;-77
2022/01/29 04:20:23;;;;;;;78.90;36.83;;;;;;;5.16;100.00;102628.31;4806402;29;20092;-78
2022/01/29 04:22:48;;;;;;;74.03;34.38;;;;;;;5.16;100.00;102618.06;4806841;29;20035;-76
2022/01/29 04:25:13;;;;;;;78.93;35.80;;;;;;;5.16;100.00;102613.78;4806629;29;20029;-79
2022/01/29 04:27:42;;;;;;;75.38;35.40;;;;;;;5.26;100.00;102624.78;4806323;29;20457;-76
2022/01/29 04:30:23;;;;;;;77.20;36.92;;;;;;;5.30;100.00;102625.56;4806560;29;20041;-79
2022/01/29 04:35:14;;;;;;;74.43;36.88;;;;;;;5.32;100.00;102618.75;4806510;29;20081;-79
2022/01/29 04:37:39;;;;;;;72.18;36.30;;;;;;;5.17;100.00;102591.59;4806386;29;20034;-76
2022/01/29 04:40:05;;;;;;;72.93;35.20;;;;;;;5.36;100.00;102616.09;4806384;29;20483;-78
2022/01/29 04:42:30;;;;;;;83.68;37.38;;;;;;;5.32;100.00;102605.94;4804797;29;20175;-78
2022/01/29 04:44:56;;;;;;;76.25;36.00;;;;;;;5.34;100.00;102599.06;4806246;29;20062;-78
2022/01/29 04:47:21;;;;;;;77.22;35.50;;;;;;;5.33;100.00;102595.66;4806474;29;20038;-77
2022/01/29 04:49:46;;;;;;;73.95;35.78;;;;;;;5.32;100.00;102588.84;4806328;29;20484;-76
2022/01/29 04:52:12;;;;;;;72.88;35.88;;;;;;;5.48;100.00;102605.69;4806293;29;20529;-76
2022/01/29 04:54:37;;;;;;;74.97;39.22;;;;;;;5.51;100.00;102598.84;4806510;29;20105;-76
2022/01/29 04:57:03;;;;;;;69.05;36.00;;;;;;;5.52;100.00;102600.56;4806453;29;20125;-76
2022/01/29 04:59:28;;;;;;;72.95;35.80;;;;;;;5.47;100.00;102583.50;4806321;29;20035;-76
2022/01/29 05:01:53;;;;;;;74.63;37.45;;;;;;;5.42;100.00;102563.97;4806156;29;20059;-78
2022/01/29 05:04:19;;;;;;;69.40;34.90;;;;;;;5.58;100.00;102585.06;4806144;29;20035;-77
2022/01/29 05:06:44;;;;;;;72.82;35.22;;;;;;;5.47;100.00;102565.56;4806365;29;20046;-76
2022/01/29 05:09:10;;;;;;;75.53;35.88;;;;;;;5.50;100.00;102564.66;4806194;29;20065;-76
2022/01/29 05:11:35;;;;;;;76.60;36.33;;;;;;;5.58;100.00;102577.38;4806257;29;20108;-77
2022/01/29 05:14:06;;;;;;;74.32;35.08;;;;;;;5.54;100.00;102560.38;4806233;29;20480;-77
2022/01/29 05:16:54;;;;;;;75.55;35.55;;;;;;;5.64;100.00;102564.50;4805667;29;20079;-77
2022/01/29 05:27:32;;;;;;;78.93;37.58;;;;;;;5.71;100.00;102569.50;4809423;29;20427;-76
2022/01/29 05:29:57;;;;;;;73.35;35.78;;;;;;;5.72;100.00;102573.78;4809879;29;20129;-76
2022/01/29 05:32:23;;;;;;;80.57;38.38;;;;;;;5.70;100.00;102574.63;4809434;29;20069;-76
2022/01/29 05:34:48;;;;;;;78.05;37.47;;;;;;;5.75;100.00;102576.28;4809594;29;20118;-75
2022/01/29 05:37:14;;;;;;;78.72;38.97;;;;;;;5.72;100.00;102565.22;4793462;29;20102;-76
2022/01/29 05:39:39;;;;;;;83.18;37.75;;;;;;;5.79;100.00;102561.69;4809552;29;20026;-75
2022/01/29 05:42:05;;;;;;;83.97;38.60;;;;;;;5.54;100.00;102519.38;4809486;29;20034;-76
2022/01/29 05:44:30;;;;;;;86.15;39.63;;;;;;;5.82;100.00;102564.22;4809297;29;20023;-75
2022/01/29 05:46:55;;;;;;;81.25;39.65;;;;;;;5.84;100.00;102554.78;4809275;29;20062;-76
2022/01/29 05:49:21;;;;;;;87.75;41.80;;;;;;;5.79;100.00;102541.19;4809610;29;20027;-75
2022/01/29 05:51:49;;;;;;;84.82;40.47;;;;;;;5.85;100.00;102561.59;4809082;29;20101;-76
2022/01/29 05:54:15;;;;;;;86.03;40.33;;;;;;;5.92;100.00;102555.53;4809365;29;20052;-76
2022/01/29 05:56:40;;;;;;;79.35;40.13;;;;;;;5.84;100.00;102544.53;4809275;29;20499;-75
2022/01/29 05:59:05;;;;;;;87.35;40.53;;;;;;;5.84;100.00;102539.41;5245160;24;20067;-75
2022/01/29 06:01:33;;;;;;;88.43;40.80;;;;;;;5.95;100.00;102545.22;4790904;30;20121;-76
2022/01/29 06:03:58;;;;;;;82.30;40.22;;;;;;;5.95;100.00;102540.09;4791094;30;20053;-75
2022/01/29 06:06:23;;;;;;;87.28;40.80;;;;;;;5.88;100.00;102528.22;4790981;30;20472;-75
2022/01/29 06:08:49;;;;;;;83.28;39.83;;;;;;;5.88;100.00;102517.97;4791066;30;20488;-75
2022/01/29 06:11:16;;;;;;;80.85;39.08;;;;;;;6.02;100.00;102544.28;4790843;30;20365;-76
2022/01/29 06:13:41;;;;;;;83.43;40.65;;;;;;;6.07;100.00;102538.19;4790868;30;20047;-75
2022/01/29 06:16:07;;;;;;;83.30;40.80;;;;;;;5.94;100.00;102517.06;4790681;30;20073;-76
2022/01/29 06:18:33;;;;;;;84.00;42.58;;;;;;;6.00;100.00;102516.97;4790684;30;20484;-76
2022/01/29 06:21:03;;;;;;;81.63;42.55;;;;;;;6.06;100.00;102519.41;4790684;30;20031;-79
2022/01/29 06:23:34;;;;;;;83.60;41.67;;;;;;;6.15;100.00;102534.63;4790825;30;20045;-78
2022/01/29 06:26:03;;;;;;;85.93;41.70;;;;;;;6.10;100.00;102520.22;4790576;30;20135;-76
2022/01/29 06:28:28;;;;;;;80.05;39.88;;;;;;;6.16;100.00;102520.94;4774497;30;20415;-77
2022/01/29 06:30:54;;;;;;;78.22;39.20;;;;;;;6.22;100.00;102525.97;4790633;30;20106;-75
2022/01/29 06:35:49;;;;;;;84.75;40.15;;;;;;;6.26;100.00;102519.06;4807239;29;20491;-78
2022/01/29 06:38:15;;;;;;;85.78;41.72;;;;;;;6.24;100.00;102510.56;4808612;29;20027;-74
2022/01/29 06:40:42;;;;;;;84.78;39.35;;;;;;;6.20;100.00;102496.09;4808657;29;20034;-78
2022/01/29 06:43:08;;;;;;;84.68;43.17;;;;;;;6.35;100.00;102518.91;4808395;29;20107;-77
2022/01/29 06:45:36;;;;;;;74.43;39.17;;;;;;;6.27;100.00;102487.41;4808657;29;20038;-77
2022/01/29 06:48:02;;;;;;;74.88;39.20;;;;;;;6.32;100.00;102486.44;4808067;29;20066;-78
2022/01/29 06:50:28;;;;;;;80.32;41.85;;;;;;;6.24;100.00;102464.38;4808398;29;20107;-77
2022/01/29 06:52:53;;;;;;;77.53;39.42;;;;;;;6.39;100.00;102489.75;4808236;29;20531;-78
2022/01/29 06:55:19;;;;;;;72.68;37.03;;;;;;;6.43;100.00;102486.25;4791630;29;20442;-77
2022/01/29 06:57:45;;;;;;;70.25;36.40;;;;;;;6.42;100.00;102487.13;4776991;29;20039;-75
2022/01/29 07:00:10;;;;;;;70.85;36.88;;;;;;;6.47;100.00;102481.88;4808123;29;20472;-77
2022/01/29 07:02:36;;;;;;;66.25;36.28;;;;;;;6.53;100.00;102489.47;4807735;29;20031;-78
2022/01/29 07:05:03;;;;;;;71.05;36.90;;;;;;;6.40;100.00;102460.66;4807959;29;20050;-75
2022/01/29 07:07:29;;;;;;;63.95;36.40;;;;;;;6.38;100.00;102457.25;4807972;29;20498;-76
2022/01/29 07:09:54;;;;;;;68.55;35.92;;;;;;;6.47;100.00;102467.34;4807987;29;20035;-76
2022/01/29 07:12:20;;;;;;;64.53;35.25;;;;;;;6.45;100.00;102473.38;4808014;29;20058;-78
2022/01/29 07:14:49;;;;;;;68.40;35.50;;;;;;;6.55;100.00;102486.00;4807723;29;20480;-76
2022/01/29 07:17:17;;;;;;;67.10;36.35;;;;;;;6.48;100.00;102471.59;4807722;29;20031;-78
2022/01/29 07:19:45;;;;;;;69.47;38.05;;;;;;;6.58;100.00;102488.50;4807410;29;20031;-78
2022/01/29 07:22:11;;;;;;;69.20;37.10;;;;;;;6.59;100.00;102484.25;4807876;29;20498;-75
2022/01/29 07:24:38;;;;;;;69.40;36.83;;;;;;;6.60;100.00;102485.94;4807597;29;20035;-80
2022/01/29 07:27:05;;;;;;;73.63;37.95;;;;;;;6.57;100.00;102486.81;4807641;29;20059;-80
2022/01/29 07:29:31;;;;;;;70.18;38.22;;;;;;;6.55;100.00;102477.47;4807432;29;20484;-77
2022/01/29 07:31:57;;;;;;;70.25;37.78;;;;;;;6.56;100.00;102477.41;4808065;29;20434;-80
2022/01/29 07:34:24;;;;;;;70.15;37.33;;;;;;;6.52;100.00;102470.66;4807302;29;20059;-79
2022/01/29 07:36:51;;;;;;;71.03;36.63;;;;;;;6.60;100.00;102479.06;4807491;29;20464;-79
2022/01/29 07:39:17;;;;;;;79.95;39.13;;;;;;;6.48;100.00;102461.31;4798875;24;20055;-80
2022/01/29 07:41:42;;;;;;;71.05;37.08;;;;;;;6.40;100.00;102449.53;4789490;30;20043;-78
2022/01/29 07:44:07;;;;;;;72.22;39.00;;;;;;;6.65;100.00;102480.69;4789208;30;20032;-80
2022/01/29 07:46:33;;;;;;;72.68;36.88;;;;;;;6.65;100.00;102483.25;4789128;29;20035;-78
2022/01/29 07:48:58;;;;;;;69.60;36.85;;;;;;;6.52;100.00;102449.28;4789323;30;20028;-77
2022/01/29 07:51:23;;;;;;;71.07;38.13;;;;;;;6.69;100.00;102475.47;4789409;30;20472;-81
2022/01/29 07:53:49;;;;;;;71.55;37.03;;;;;;;6.73;100.00;102477.09;4789320;30;20378;-80
2022/01/29 07:56:24;;;;;;;67.28;35.55;;;;;;;6.74;100.00;102475.38;4789554;30;20111;-78
2022/01/29 07:58:50;;;;;;;75.03;36.47;;;;;;;6.60;100.00;102440.56;4789414;30;20031;-77
2022/01/29 08:01:19;;;;;;;67.78;35.65;;;;;;;6.71;100.00;102455.75;4786722;29;20027;-75
2022/01/29 08:03:46;;;;;;;67.30;36.03;;;;;;;6.80;100.00;102468.41;4788994;29;20039;-75
2022/01/29 08:06:13;;;;;;;70.80;36.72;;;;;;;6.81;100.00;102471.81;4789027;30;20027;-75
2022/01/29 08:08:38;;;;;;;71.95;35.55;;;;;;;6.47;100.00;102410.88;4788883;30;20177;-75
2022/01/29 08:11:03;;;;;;;71.65;37.33;;;;;;;6.84;100.00;102453.75;4788942;30;20110;-77
2022/01/29 08:13:29;;;;;;;74.75;37.08;;;;;;;6.86;100.00;102446.84;4788665;30;20039;-80
2022/01/29 08:15:54;;;;;;;70.05;35.63;;;;;;;6.89;100.00;102451.94;4789111;30;20035;-78
2022/01/29 08:18:19;;;;;;;71.97;37.17;;;;;;;6.94;100.00;102451.84;4788845;30;20122;-77
2022/01/29 08:20:45;;;;;;;71.00;36.67;;;;;;;6.96;100.00;102450.91;4788835;30;20035;-76
2022/01/29 08:23:10;;;;;;;66.30;35.30;;;;;;;7.00;100.00;102441.44;4789083;30;20041;-75
2022/01/29 08:25:37;;;;;;;69.28;35.42;;;;;;;6.87;100.00;102413.44;4789216;30;20461;-78
2022/01/29 08:28:04;;;;;;;64.78;35.55;;;;;;;6.94;100.00;102423.59;4788591;30;20043;-76
2022/01/29 08:30:30;;;;;;;62.28;34.75;;;;;;;7.02;100.00;102427.69;4788691;30;20507;-78
2022/01/29 08:32:55;;;;;;;61.33;34.47;;;;;;;7.02;100.00;102425.09;4788662;30;20031;-81
2022/01/29 08:35:20;;;;;;;61.17;34.33;;;;;;;7.10;100.00;102430.06;4788535;30;20039;-79
2022/01/29 08:37:46;;;;;;;63.72;35.67;;;;;;;7.07;100.00;102418.13;4788667;30;20024;-79
2022/01/29 08:46:57;;;;;;;56.28;32.03;;;;;;;7.27;100.00;102427.94;4809637;29;20043;-78
2022/01/29 08:49:23;;;;;;;58.83;35.00;;;;;;;7.31;100.00;102426.16;4806163;29;20046;-80
2022/01/29 08:51:48;;;;;;;55.35;32.80;;;;;;;7.13;100.00;102392.31;4806243;29;20038;-79
2022/01/29 08:54:14;;;;;;;54.40;32.58;;;;;;;7.29;100.00;102412.50;4789997;29;20046;-79
2022/01/29 08:56:39;;;;;;;53.17;33.70;;;;;;;7.39;100.00;102419.13;4805608;29;20125;-79
2022/01/29 08:59:05;;;;;;;55.95;31.83;;;;;;;7.42;100.00;102419.88;4806307;29;20035;-79
2022/01/29 09:01:30;;;;;;;51.55;33.03;;;;;;;7.43;100.00;102410.44;4806166;29;20038;-79
2022/01/29 09:03:55;;;;;;;55.25;32.58;;;;;;;7.45;100.00;102406.09;4806230;29;20551;-77
2022/01/29 09:06:21;;;;;;;53.83;31.50;;;;;;;7.38;100.00;102384.03;4805974;29;20027;-78
2022/01/29 09:08:49;;;;;;;54.60;31.98;;;;;;;7.29;100.00;102368.81;4805776;29;20067;-80
2022/01/29 09:11:15;;;;;;;55.42;31.67;;;;;;;7.51;100.00;102403.38;4805983;29;20027;-79
2022/01/29 09:13:41;;;;;;;52.65;33.22;;;;;;;7.39;100.00;102383.13;4806006;29;20160;-78
2022/01/29 09:16:06;;;;;;;53.38;33.38;;;;;;;7.43;100.00;102369.31;4805793;29;20121;-78
2022/01/29 09:18:32;;;;;;;51.75;32.50;;;;;;;7.55;100.00;102383.56;4789802;29;20042;-78
2022/01/29 09:21:00;;;;;;;51.30;31.33;;;;;;;7.68;100.00;102398.66;4805385;29;20551;-78
2022/01/29 09:23:37;;;;;;;51.47;30.85;;;;;;;7.50;100.00;102357.16;4789361;29;20046;-78
2022/01/29 09:26:03;;;;;;;47.17;30.42;;;;;;;6.90;100.00;102250.75;4811467;24;20145;-79
2022/01/29 09:28:28;;;;;;;48.75;30.75;;;;;;;7.71;100.00;102370.28;4802185;24;20150;-79
2022/01/29 09:30:54;;;;;;;52.97;32.28;;;;;;;7.85;100.00;102399.94;4793699;24;20059;-80
2022/01/29 09:33:19;;;;;;;47.22;29.70;;;;;;;7.72;100.00;102371.97;4787816;30;20445;-83
2022/01/29 09:35:45;;;;;;;48.45;29.75;;;;;;;7.90;100.00;102404.09;4787765;30;20064;-83
2022/01/29 09:38:11;;;;;;;47.10;30.48;;;;;;;7.93;100.00;102403.16;4787740;30;20031;-80
2022/01/29 09:40:40;;;;;;;45.05;28.45;;;;;;;7.92;100.00;102393.75;4806059;29;20042;-80
2022/01/29 09:43:09;;;;;;;45.05;28.52;;;;;;;7.97;100.00;102391.91;4784684;24;20420;-80
2022/01/29 09:45:35;;;;;;;47.58;29.20;;;;;;;8.00;100.00;102395.25;4770000;30;20048;-80
2022/01/29 09:48:02;;;;;;;40.53;27.17;;;;;;;7.98;100.00;102394.44;4769842;30;20039;-78
2022/01/29 09:50:37;;;;;;;42.92;28.52;;;;;;;8.05;100.00;102395.94;4769842;30;20024;-79
2022/01/29 09:53:04;;;;;;;41.47;25.95;;;;;;;8.06;100.00;102386.50;4770021;30;20040;-79
2022/01/29 09:55:30;;;;;;;44.03;28.40;;;;;;;8.06;100.00;102396.78;4770000;30;20032;-79
2022/01/29 09:57:57;;;;;;;38.30;25.58;;;;;;;8.07;100.00;102401.06;4769987;30;20500;-77
2022/01/29 10:00:23;;;;;;;35.85;24.10;;;;;;;7.99;100.00;102382.41;4769960;30;20039;-78
2022/01/29 10:03:10;;;;;;;36.88;24.27;;;;;;;8.17;100.00;102397.34;4769686;30;20115;-78
2022/01/29 10:05:38;;;;;;;33.83;22.88;;;;;;;8.21;100.00;102396.38;4769426;30;20043;-77
2022/01/29 10:08:04;;;;;;;35.50;22.48;;;;;;;8.19;100.00;102392.16;4905787;24;20059;-77
2022/01/29 10:10:38;;;;;;;34.08;22.95;;;;;;;8.04;100.00;102357.41;4791114;30;20039;-77
2022/01/29 10:13:27;;;;;;;33.55;21.50;;;;;;;8.32;100.00;102384.03;4791041;30;20393;-78
2022/01/29 10:16:22;;;;;;;31.58;21.75;;;;;;;8.36;100.00;102389.13;4790872;30;20572;-79
2022/01/29 10:18:58;;;;;;;33.92;22.95;;;;;;;8.41;100.00;102384.69;4790778;30;20031;-78
2022/01/29 10:21:27;;;;;;;29.00;20.27;;;;;;;8.41;100.00;102384.69;4790656;30;20480;-76
2022/01/29 10:24:03;;;;;;;28.08;19.88;;;;;;;8.31;100.00;102364.34;4790649;30;20119;-74
2022/01/29 10:26:31;;;;;;;32.55;20.20;;;;;;;8.44;100.00;102362.28;4790648;30;20433;-75
2022/01/29 10:28:57;;;;;;;28.15;19.42;;;;;;;8.55;99.76;102354.22;4790580;30;20031;-76
2022/01/29 10:31:23;;;;;;;28.40;18.58;;;;;;;8.70;99.71;102364.06;4790623;30;20081;-77
2022/01/29 10:33:48;;;;;;;27.08;19.30;;;;;;;8.82;98.74;102345.66;4790596;29;20028;-77
2022/01/29 10:36:17;;;;;;;27.50;18.95;;;;;;;8.77;98.16;102321.78;4790344;30;20027;-75
2022/01/29 10:38:53;;;;;;;25.50;17.80;;;;;;;8.86;97.72;102336.97;4790762;30;20062;-77
2022/01/29 10:41:25;;;;;;;27.33;16.42;;;;;;;8.82;97.87;102331.94;4790588;30;20028;-75
2022/01/29 10:44:18;;;;;;;26.25;18.85;;;;;;;8.90;97.58;102341.13;4790512;30;20114;-77
2022/01/29 10:46:54;;;;;;;26.13;17.15;;;;;;;8.94;97.49;102344.44;4790220;30;20481;-78
2022/01/29 10:49:30;;;;;;;24.98;16.77;;;;;;;9.08;97.22;102333.69;4790212;30;20057;-80
2022/01/29 10:52:08;;;;;;;22.13;15.57;;;;;;;9.16;95.90;102331.72;4790285;30;20370;-78
2022/01/29 10:54:36;;;;;;;22.77;15.25;;;;;;;9.18;95.67;102338.50;4790498;30;20027;-78
2022/01/29 10:57:14;;;;;;;23.55;14.77;;;;;;;9.25;95.42;102346.88;4790258;30;20464;-77
2022/01/29 10:59:52;;;;;;;20.08;13.90;;;;;;;9.26;94.90;102338.25;4790137;30;20042;-77
2022/01/29 11:02:19;;;;;;;19.45;13.93;;;;;;;9.25;94.39;102334.00;4790181;30;20031;-78
2022/01/29 11:04:45;;;;;;;23.15;14.07;;;;;;;9.22;94.58;102331.50;4788959;30;20396;-76
2022/01/29 11:07:18;;;;;;;16.35;11.57;;;;;;;9.23;93.79;102327.19;4789643;29;20056;-77
2022/01/29 11:09:47;;;;;;;16.20;10.45;;;;;;;9.25;93.38;102318.53;4789995;30;20032;-76
2022/01/29 11:12:17;;;;;;;14.73;9.32;;;;;;;9.25;92.74;102310.78;4789932;30;20480;-77
2022/01/29 11:15:02;;;;;;;11.90;7.65;;;;;;;8.92;92.29;102253.47;4789832;29;20035;-76
2022/01/29 11:17:36;;;;;;;11.70;7.63;;;;;;;9.39;92.62;102318.88;4789856;30;20035;-76
2022/01/29 11:20:03;;;;;;;11.75;7.90;;;;;;;9.42;91.80;102299.88;4789631;29;20035;-77
2022/01/29 11:22:40;;;;;;;13.80;7.57;;;;;;;9.41;91.38;102288.72;4789424;29;20037;-77
2022/01/29 11:25:09;;;;;;;10.60;6.18;;;;;;;9.53;90.17;102279.72;4790036;30;20035;-78
2022/01/29 11:27:41;;;;;;;9.18;5.95;;;;;;;9.64;89.65;102300.00;4789637;30;20499;-77
2022/01/29 11:30:09;;;;;;;8.25;5.32;;;;;;;9.72;89.16;102287.63;4789456;30;20063;-77
2022/01/29 11:32:45;;;;;;;8.05;5.13;;;;;;;9.86;88.83;102285.41;4789751;30;20035;-78
2022/01/29 11:35:31;;;;;;;9.05;5.30;;;;;;;10.02;88.62;102270.19;4789546;30;20098;-77
2022/01/29 11:38:02;;;;;;;8.32;4.72;;;;;;;10.10;88.08;102259.59;4789349;30;20028;-77
2022/01/29 11:40:29;;;;;;;8.77;4.10;;;;;;;10.11;86.88;102262.09;4788663;30;20035;-77
2022/01/29 11:43:07;;;;;;;8.68;4.00;;;;;;;10.11;87.16;102251.78;4789500;30;20058;-77
2022/01/29 11:45:51;;;;;;;8.82;5.25;;;;;;;10.09;87.23;102251.00;4789300;30;20433;-77
2022/01/29 11:48:26;;;;;;;8.90;5.13;;;;;;;10.03;87.10;102234.03;4789454;30;20104;-78
2022/01/29 11:50:55;;;;;;;7.47;4.07;;;;;;;9.98;86.62;102237.66;4789336;30;20032;-80
2022/01/29 11:53:23;;;;;;;8.05;4.30;;;;;;;9.88;87.07;102219.13;4789245;30;20031;-78
2022/01/29 11:55:56;;;;;;;9.18;4.10;;;;;;;10.01;87.16;102232.38;4789242;30;20084;-77